Time;durP1;ratioP1;P1;durP2;ratioP2;P2;SDS_P1;SDS_P2;PMS_P1;PMS_P2;Temp;Humidity;BMP_temperature;BMP_pressure;BME280_temperature;BME280_humidity;BME280_pressure;Samples;Min_cycle;Max_cycle;Signal;HPM_P1;HPM_P2
2023/10/02 00:00:41;;;;;;;17.73;8.25;;;;;;;;;;5073094;28;20208;-71
2023/10/02 00:03:09;;;;;;;14.95;8.10;;;;;;;;;;5073118;28;20204;-71
2023/10/02 00:05:41;;;;;;;16.92;8.38;;;;;;;;;;5072764;28;20727;-71
2023/10/02 00:08:07;;;;;;;13.43;7.47;;;;;;;;;;5072502;28;20196;-71
2023/10/02 00:10:33;;;;;;;15.98;7.88;;;;;;;;;;5072887;28;20204;-71
2023/10/02 00:12:59;;;;;;;16.33;8.90;;;;;;;;;;5072633;28;20716;-70
2023/10/02 00:15:27;;;;;;;16.05;7.75;;;;;;;;;;5072467;28;20223;-71
2023/10/02 00:17:53;;;;;;;16.00;8.40;;;;;;;;;;5072682;28;20597;-71
2023/10/02 00:20:21;;;;;;;15.70;8.30;;;;;;;;;;5072262;28;20211;-71
2023/10/02 00:22:48;;;;;;;17.48;8.65;;;;;;;;;;5056320;28;20196;-70
2023/10/02 00:25:16;;;;;;;13.35;7.35;;;;;;;;;;5072554;28;20224;-71
2023/10/02 00:27:45;;;;;;;14.55;7.90;;;;;;;;;;5072420;28;20196;-71
2023/10/02 00:30:13;;;;;;;14.35;7.57;;;;;;;;;;5072164;28;20207;-71
2023/10/02 00:32:41;;;;;;;16.67;8.48;;;;;;;;;;5072283;28;20196;-72
2023/10/02 00:35:10;;;;;;;15.20;7.82;;;;;;;;;;5072268;28;20707;-70
2023/10/02 00:37:44;;;;;;;19.67;8.93;;;;;;;;;;5071985;28;20665;-71
2023/10/02 00:40:13;;;;;;;11.90;7.78;;;;;;;;;;5072126;28;20204;-71
2023/10/02 00:42:38;;;;;;;15.50;7.97;;;;;;;;;;5071932;28;20586;-71
2023/10/02 00:45:06;;;;;;;16.33;7.93;;;;;;;;;;5071933;28;20221;-71
2023/10/02 00:47:38;;;;;;;12.75;7.72;;;;;;;;;;5071737;28;20233;-70
2023/10/02 00:50:16;;;;;;;13.98;7.50;;;;;;;;;;5072097;28;20192;-70
2023/10/02 00:52:43;;;;;;;14.20;7.85;;;;;;;;;;5072076;28;20204;-70
2023/10/02 00:55:10;;;;;;;11.75;6.97;;;;;;;;;;5071782;28;20223;-70
2023/10/02 00:57:38;;;;;;;13.50;7.80;;;;;;;;;;5071767;28;20211;-70
2023/10/02 01:00:06;;;;;;;14.65;7.68;;;;;;;;;;5071538;28;20248;-70
2023/10/02 01:02:33;;;;;;;14.00;7.53;;;;;;;;;;5071949;28;20295;-70
2023/10/02 01:05:00;;;;;;;13.40;7.50;;;;;;;;;;5072038;28;20232;-71
2023/10/02 01:07:28;;;;;;;17.88;8.02;;;;;;;;;;5071734;28;20204;-71
2023/10/02 01:10:07;;;;;;;12.23;7.93;;;;;;;;;;5071490;28;20261;-71
2023/10/02 01:12:43;;;;;;;12.18;7.25;;;;;;;;;;5071520;28;20250;-72
2023/10/02 01:15:11;;;;;;;13.88;7.25;;;;;;;;;;5071769;28;20220;-71
2023/10/02 01:17:39;;;;;;;13.93;7.60;;;;;;;;;;5071578;28;20204;-71
2023/10/02 01:20:12;;;;;;;15.70;8.10;;;;;;;;;;5071531;28;20208;-71
2023/10/02 01:22:42;;;;;;;12.80;7.82;;;;;;;;;;5071407;28;20282;-71
2023/10/02 01:25:13;;;;;;;13.68;7.32;;;;;;;;;;5071152;28;20215;-71
2023/10/02 01:27:41;;;;;;;15.80;8.20;;;;;;;;;;5071291;28;20703;-72
2023/10/02 01:30:15;;;;;;;14.27;7.55;;;;;;;;;;5071189;28;20676;-71
2023/10/02 01:32:49;;;;;;;12.48;7.68;;;;;;;;;;5071310;28;20664;-71
2023/10/02 01:35:18;;;;;;;18.80;8.10;;;;;;;;;;5071416;28;20217;-71
2023/10/02 01:37:46;;;;;;;14.30;7.95;;;;;;;;;;5071073;28;20204;-71
2023/10/02 01:40:34;;;;;;;14.30;7.97;;;;;;;;;;5071271;28;20204;-71
2023/10/02 01:43:12;;;;;;;13.75;7.40;;;;;;;;;;5056716;28;20617;-72
2023/10/02 01:45:42;;;;;;;17.20;8.65;;;;;;;;;;5071110;28;20224;-71
2023/10/02 01:48:09;;;;;;;13.00;7.75;;;;;;;;;;5070932;28;20242;-71
2023/10/02 01:50:36;;;;;;;12.20;7.55;;;;;;;;;;5071402;28;20261;-71
2023/10/02 01:53:05;;;;;;;13.40;7.97;;;;;;;;;;5071312;28;20544;-71
2023/10/02 01:55:35;;;;;;;14.15;7.82;;;;;;;;;;5070960;28;20250;-71
2023/10/02 01:58:16;;;;;;;14.90;7.35;;;;;;;;;;5071033;28;20204;-71
2023/10/02 02:00:45;;;;;;;12.07;7.68;;;;;;;;;;5071020;28;20285;-71
2023/10/02 02:03:15;;;;;;;15.15;8.05;;;;;;;;;;5071632;28;20279;-71
2023/10/02 02:05:44;;;;;;;14.18;7.00;;;;;;;;;;5070924;28;20224;-71
2023/10/02 02:08:22;;;;;;;13.30;7.30;;;;;;;;;;5070793;28;20662;-71
2023/10/02 02:10:50;;;;;;;14.55;7.40;;;;;;;;;;5071045;28;20207;-71
2023/10/02 02:13:16;;;;;;;14.77;8.25;;;;;;;;;;5071036;28;20660;-71
2023/10/02 02:15:45;;;;;;;16.48;7.65;;;;;;;;;;5070623;28;20220;-71
2023/10/02 02:18:11;;;;;;;15.82;7.63;;;;;;;;;;5071155;28;20207;-71
2023/10/02 02:20:44;;;;;;;16.00;7.95;;;;;;;;;;5071294;28;20254;-71
2023/10/02 02:23:14;;;;;;;14.70;7.72;;;;;;;;;;5071198;28;20196;-71
2023/10/02 02:25:41;;;;;;;13.82;7.53;;;;;;;;;;5070648;28;20246;-71
2023/10/02 02:28:09;;;;;;;13.93;7.50;;;;;;;;;;5070785;28;20200;-71
2023/10/02 02:30:40;;;;;;;12.30;6.97;;;;;;;;;;5070940;28;20229;-71
2023/10/02 02:33:07;;;;;;;12.85;7.88;;;;;;;;;;5071130;28;20254;-71
2023/10/02 02:35:35;;;;;;;13.45;8.00;;;;;;;;;;5068789;28;20224;-71
2023/10/02 02:38:02;;;;;;;14.40;7.72;;;;;;;;;;5058798;28;20228;-71
2023/10/02 02:40:30;;;;;;;13.55;7.60;;;;;;;;;;5074616;28;20211;-71
2023/10/02 02:42:56;;;;;;;12.82;7.32;;;;;;;;;;5074520;28;20196;-71
2023/10/02 02:45:29;;;;;;;13.93;8.27;;;;;;;;;;5074318;28;20220;-71
2023/10/02 02:47:55;;;;;;;13.07;7.88;;;;;;;;;;5074295;28;20204;-71
2023/10/02 02:50:27;;;;;;;13.25;7.35;;;;;;;;;;5074059;28;20189;-71
2023/10/02 02:53:16;;;;;;;15.82;8.25;;;;;;;;;;5074663;28;20208;-71
2023/10/02 02:55:42;;;;;;;12.80;7.75;;;;;;;;;;5073700;28;20311;-71
2023/10/02 02:58:08;;;;;;;15.88;8.00;;;;;;;;;;5073998;28;20283;-71
2023/10/02 03:00:36;;;;;;;16.00;8.27;;;;;;;;;;5074188;28;20199;-71
2023/10/02 03:03:29;;;;;;;16.48;8.52;;;;;;;;;;5057764;28;20231;-71
2023/10/02 03:05:52;;;;;;;15.68;8.20;;;;;;;;;;5073740;28;20228;-71
2023/10/02 03:08:19;;;;;;;11.52;7.15;;;;;;;;;;5073640;28;20576;-71
2023/10/02 03:10:46;;;;;;;11.65;7.10;;;;;;;;;;5073810;28;20197;-71
2023/10/02 03:13:16;;;;;;;12.32;7.53;;;;;;;;;;5073881;28;20284;-71
2023/10/02 03:15:47;;;;;;;10.77;7.43;;;;;;;;;;5073826;28;20216;-71
2023/10/02 03:18:30;;;;;;;11.75;7.30;;;;;;;;;;5073751;28;20226;-71
2023/10/02 03:20:57;;;;;;;13.10;7.28;;;;;;;;;;5073792;28;20200;-71
2023/10/02 03:23:27;;;;;;;12.85;8.05;;;;;;;;;;5073763;28;20284;-71
2023/10/02 03:25:56;;;;;;;14.65;7.53;;;;;;;;;;5073515;28;20228;-71
2023/10/02 03:28:28;;;;;;;13.43;7.70;;;;;;;;;;5073782;28;20526;-71
2023/10/02 03:30:55;;;;;;;13.27;7.57;;;;;;;;;;5073428;28;20609;-71
2023/10/02 03:33:22;;;;;;;12.63;7.70;;;;;;;;;;5073620;28;20200;-71
2023/10/02 03:35:58;;;;;;;12.02;7.53;;;;;;;;;;5073393;28;20220;-71
2023/10/02 03:38:24;;;;;;;15.60;8.48;;;;;;;;;;5073239;28;20923;-71
2023/10/02 03:40:53;;;;;;;12.68;7.03;;;;;;;;;;5073602;28;20215;-71
2023/10/02 03:43:31;;;;;;;12.02;7.00;;;;;;;;;;5073468;28;20209;-71
2023/10/02 03:46:01;;;;;;;13.13;7.72;;;;;;;;;;5073316;28;20224;-71
2023/10/02 03:48:28;;;;;;;14.82;7.88;;;;;;;;;;5072481;28;20620;-71
2023/10/02 03:50:56;;;;;;;12.35;8.30;;;;;;;;;;5072970;28;20668;-71
2023/10/02 03:53:29;;;;;;;11.93;7.50;;;;;;;;;;5073474;28;20200;-71
2023/10/02 03:56:36;;;;;;;12.32;7.25;;;;;;;;;;5072982;28;20228;-71
2023/10/02 03:58:46;;;;;;;13.30;7.40;;;;;;;;;;5072587;28;20304;-72
2023/10/02 04:01:17;;;;;;;11.40;7.00;;;;;;;;;;5073131;28;20289;-71
2023/10/02 04:03:55;;;;;;;15.18;7.43;;;;;;;;;;5073235;28;20325;-71
2023/10/02 04:06:33;;;;;;;12.15;7.13;;;;;;;;;;5072950;28;20710;-71
2023/10/02 04:09:07;;;;;;;15.57;7.88;;;;;;;;;;5073028;28;20196;-71
2023/10/02 04:11:34;;;;;;;13.05;7.30;;;;;;;;;;5072949;28;20196;-72
2023/10/02 04:14:00;;;;;;;11.93;8.15;;;;;;;;;;5072890;28;20703;-71
2023/10/02 04:16:30;;;;;;;13.80;7.93;;;;;;;;;;5072936;28;20353;-71
2023/10/02 04:19:00;;;;;;;16.15;7.70;;;;;;;;;;5072509;28;20220;-71
2023/10/02 04:21:27;;;;;;;13.60;7.55;;;;;;;;;;5072884;28;20212;-71
2023/10/02 04:23:54;;;;;;;15.30;7.38;;;;;;;;;;5072317;28;20204;-71
2023/10/02 04:26:20;;;;;;;14.23;8.10;;;;;;;;;;5072453;28;20601;-71
2023/10/02 04:28:54;;;;;;;13.02;7.65;;;;;;;;;;5072549;28;20193;-71
2023/10/02 04:31:21;;;;;;;14.02;7.55;;;;;;;;;;5072685;28;20202;-71
2023/10/02 04:33:54;;;;;;;13.43;7.88;;;;;;;;;;5072322;28;20192;-71
2023/10/02 04:36:31;;;;;;;13.50;7.55;;;;;;;;;;5072610;28;20704;-71
2023/10/02 04:38:57;;;;;;;15.70;8.27;;;;;;;;;;5072393;28;20226;-71
2023/10/02 04:41:26;;;;;;;13.38;7.75;;;;;;;;;;5072915;28;20228;-71
2023/10/02 04:43:57;;;;;;;15.25;8.00;;;;;;;;;;5072820;28;20193;-71
2023/10/02 04:46:24;;;;;;;11.90;7.22;;;;;;;;;;5072386;28;20224;-71
2023/10/02 04:48:59;;;;;;;17.25;8.77;;;;;;;;;;5071794;28;20197;-71
2023/10/02 04:51:28;;;;;;;15.98;8.77;;;;;;;;;;5072085;28;20196;-71
2023/10/02 04:53:57;;;;;;;21.90;9.32;;;;;;;;;;5072144;28;20200;-71
2023/10/02 04:56:24;;;;;;;15.43;8.45;;;;;;;;;;5071767;28;20310;-71
2023/10/02 04:58:51;;;;;;;19.45;8.60;;;;;;;;;;5070725;28;20653;-71
2023/10/02 05:01:28;;;;;;;18.80;8.52;;;;;;;;;;5071848;28;20207;-72
2023/10/02 05:04:02;;;;;;;15.63;8.18;;;;;;;;;;5071573;28;20570;-61
2023/10/02 05:06:43;;;;;;;14.40;8.57;;;;;;;;;;5071910;28;20220;-60
2023/10/02 05:09:26;;;;;;;16.65;8.60;;;;;;;;;;5071434;28;20657;-61
2023/10/02 05:11:53;;;;;;;11.70;7.68;;;;;;;;;;5071568;28;20288;-61
2023/10/02 05:14:26;;;;;;;16.55;8.35;;;;;;;;;;5071405;28;20216;-60
2023/10/02 05:16:52;;;;;;;17.35;8.43;;;;;;;;;;5071541;28;20601;-60
2023/10/02 05:19:46;;;;;;;15.95;8.65;;;;;;;;;;5071311;28;20215;-59
2023/10/02 05:22:07;;;;;;;13.88;7.55;;;;;;;;;;5071296;28;20283;-60
2023/10/02 05:24:34;;;;;;;16.85;8.27;;;;;;;;;;5071466;28;20283;-60
2023/10/02 05:27:00;;;;;;;19.75;8.60;;;;;;;;;;5071160;28;20636;-60
2023/10/02 05:29:37;;;;;;;15.55;8.13;;;;;;;;;;5071452;28;20660;-60
2023/10/02 05:32:16;;;;;;;17.55;8.25;;;;;;;;;;5071359;28;20200;-60
2023/10/02 05:34:58;;;;;;;13.65;7.65;;;;;;;;;;5071357;28;20196;-60
2023/10/02 05:37:30;;;;;;;13.48;8.15;;;;;;;;;;5071395;28;20592;-60
2023/10/02 05:40:27;;;;;;;16.20;8.63;;;;;;;;;;5071237;28;20224;-60
2023/10/02 05:42:53;;;;;;;12.88;7.55;;;;;;;;;;5071310;28;20197;-60
2023/10/02 05:45:37;;;;;;;13.45;8.00;;;;;;;;;;5071204;28;20748;-60
2023/10/02 05:48:07;;;;;;;17.85;7.97;;;;;;;;;;5071314;28;20230;-60
2023/10/02 05:50:37;;;;;;;12.65;8.68;;;;;;;;;;5071824;28;20255;-60
2023/10/02 05:53:04;;;;;;;16.08;8.60;;;;;;;;;;5071330;28;20223;-60
2023/10/02 05:55:54;;;;;;;17.83;8.43;;;;;;;;;;5071054;28;20251;-60
2023/10/02 05:58:27;;;;;;;16.83;8.55;;;;;;;;;;5070752;28;20720;-59
2023/10/02 06:00:53;;;;;;;12.75;7.90;;;;;;;;;;5071296;28;20274;-60
2023/10/02 06:03:21;;;;;;;14.52;8.02;;;;;;;;;;5071000;28;20203;-60
2023/10/02 06:06:10;;;;;;;18.02;8.98;;;;;;;;;;5070887;28;20704;-60
2023/10/02 06:08:40;;;;;;;14.93;7.93;;;;;;;;;;5070677;28;20192;-61
2023/10/02 06:11:25;;;;;;;18.70;8.05;;;;;;;;;;5073530;28;20287;-61
2023/10/02 06:13:54;;;;;;;16.30;9.00;;;;;;;;;;5075206;28;20192;-61
2023/10/02 06:16:23;;;;;;;16.65;9.07;;;;;;;;;;5074771;28;20216;-61
2023/10/02 06:19:00;;;;;;;15.40;9.10;;;;;;;;;;5074638;28;20201;-61
2023/10/02 06:21:28;;;;;;;14.65;8.32;;;;;;;;;;5075095;28;20200;-61
2023/10/02 06:23:56;;;;;;;18.92;8.77;;;;;;;;;;5074873;28;20208;-60
2023/10/02 06:26:25;;;;;;;14.15;8.02;;;;;;;;;;5074767;28;20248;-61
2023/10/02 06:29:13;;;;;;;14.50;9.13;;;;;;;;;;5074595;28;20200;-61
2023/10/02 06:31:42;;;;;;;13.55;8.85;;;;;;;;;;5074573;28;20566;-61
2023/10/02 06:34:11;;;;;;;19.10;9.88;;;;;;;;;;5074779;28;20228;-62
2023/10/02 06:36:47;;;;;;;14.18;8.48;;;;;;;;;;5056158;28;20224;-62
2023/10/02 06:39:17;;;;;;;15.95;9.25;;;;;;;;;;5059092;28;20216;-62
2023/10/02 06:41:43;;;;;;;17.77;9.25;;;;;;;;;;5068196;28;20204;-62
2023/10/02 06:44:15;;;;;;;17.75;9.55;;;;;;;;;;5068636;28;20516;-61
2023/10/02 06:46:52;;;;;;;16.52;9.50;;;;;;;;;;5068605;28;20275;-62
2023/10/02 06:49:20;;;;;;;19.58;10.30;;;;;;;;;;5068499;28;20211;-62
2023/10/02 06:51:49;;;;;;;20.17;9.85;;;;;;;;;;5068580;28;20216;-61
2023/10/02 06:54:16;;;;;;;19.48;10.32;;;;;;;;;;5061004;28;20215;-60
2023/10/02 06:56:42;;;;;;;20.38;9.88;;;;;;;;;;5058065;28;20236;-60
2023/10/02 06:59:09;;;;;;;17.45;9.55;;;;;;;;;;5049210;28;20308;-62
2023/10/02 07:01:36;;;;;;;16.60;9.60;;;;;;;;;;5053978;28;20598;-62
2023/10/02 07:04:09;;;;;;;17.50;9.68;;;;;;;;;;5047436;28;20217;-61
2023/10/02 07:06:38;;;;;;;18.02;9.60;;;;;;;;;;5047488;28;20228;-60
2023/10/02 07:09:12;;;;;;;23.80;11.98;;;;;;;;;;5048724;28;20299;-59
2023/10/02 07:11:39;;;;;;;25.80;11.68;;;;;;;;;;5049151;28;20209;-60
2023/10/02 07:14:06;;;;;;;24.63;11.90;;;;;;;;;;5048646;28;20653;-61
2023/10/02 07:16:32;;;;;;;23.55;11.80;;;;;;;;;;5049284;28;20239;-60
2023/10/02 07:18:59;;;;;;;20.45;12.00;;;;;;;;;;5049209;28;20295;-60
2023/10/02 07:21:27;;;;;;;21.52;10.82;;;;;;;;;;5045376;28;20259;-63
2023/10/02 07:23:54;;;;;;;24.42;11.52;;;;;;;;;;5049316;28;20205;-62
2023/10/02 07:26:49;;;;;;;25.70;11.55;;;;;;;;;;5048918;28;20229;-62
2023/10/02 07:29:08;;;;;;;22.15;11.63;;;;;;;;;;5049463;28;20626;-62
2023/10/02 07:31:35;;;;;;;24.85;12.48;;;;;;;;;;5050203;28;20208;-61
2023/10/02 07:34:02;;;;;;;34.45;13.07;;;;;;;;;;5052311;28;20304;-61
2023/10/02 07:36:32;;;;;;;21.73;11.80;;;;;;;;;;5053513;28;20224;-61
2023/10/02 07:39:00;;;;;;;24.38;13.07;;;;;;;;;;5048537;28;20213;-61
2023/10/02 07:41:28;;;;;;;25.65;13.60;;;;;;;;;;5059260;28;20217;-60
2023/10/02 07:43:55;;;;;;;26.92;13.30;;;;;;;;;;5061545;28;20225;-60
2023/10/02 07:46:22;;;;;;;23.95;14.00;;;;;;;;;;5059224;28;20535;-61
2023/10/02 07:48:57;;;;;;;23.70;12.13;;;;;;;;;;5054322;28;20207;-61
2023/10/02 07:51:30;;;;;;;30.70;13.45;;;;;;;;;;5056260;28;20309;-62
2023/10/02 07:53:58;;;;;;;27.38;14.05;;;;;;;;;;5051193;28;20216;-63
2023/10/02 07:56:25;;;;;;;27.38;13.07;;;;;;;;;;5059429;28;20241;-62
2023/10/02 07:58:55;;;;;;;22.60;13.45;;;;;;;;;;5048492;28;20296;-61
2023/10/02 08:01:23;;;;;;;23.10;13.52;;;;;;;;;;5049458;28;20231;-61
2023/10/02 08:03:50;;;;;;;27.77;14.50;;;;;;;;;;5056767;28;20197;-60
2023/10/02 08:06:33;;;;;;;24.60;12.93;;;;;;;;;;5059601;28;20917;-62
2023/10/02 08:11:40;;;;;;;22.25;12.07;;;;;;;;;;5046461;28;20291;-60
2023/10/02 08:14:15;;;;;;;19.60;10.73;;;;;;;;;;5059777;28;20247;-61
2023/10/02 08:19:21;;;;;;;17.38;10.27;;;;;;;;;;5054976;28;20209;-62
2023/10/02 08:21:48;;;;;;;21.55;9.95;;;;;;;;;;5061243;28;20705;-63
2023/10/02 08:24:14;;;;;;;17.42;10.25;;;;;;;;;;5056695;28;20591;-62
2023/10/02 08:26:43;;;;;;;17.80;10.32;;;;;;;;;;5055575;28;20256;-62
2023/10/02 08:29:13;;;;;;;20.50;10.25;;;;;;;;;;5056190;28;20213;-63
2023/10/02 08:31:42;;;;;;;17.73;10.02;;;;;;;;;;5055103;28;20209;-63
2023/10/02 08:34:09;;;;;;;22.67;9.43;;;;;;;;;;5054457;28;20267;-61
2023/10/02 08:36:37;;;;;;;24.48;9.98;;;;;;;;;;5049100;28;20231;-60
2023/10/02 08:39:03;;;;;;;19.90;9.80;;;;;;;;;;5049813;28;20217;-60
2023/10/02 08:41:29;;;;;;;16.88;9.65;;;;;;;;;;5062827;28;20217;-60
2023/10/02 08:44:00;;;;;;;17.58;9.93;;;;;;;;;;5053356;28;20213;-61
2023/10/02 08:46:28;;;;;;;20.80;10.75;;;;;;;;;;5062067;28;20787;-62
2023/10/02 08:48:55;;;;;;;20.80;10.00;;;;;;;;;;5057215;28;20627;-62
2023/10/02 08:51:29;;;;;;;17.02;10.02;;;;;;;;;;5062220;28;20255;-62
2023/10/02 08:53:56;;;;;;;18.52;9.40;;;;;;;;;;5061548;28;20208;-60
2023/10/02 08:56:29;;;;;;;15.05;8.88;;;;;;;;;;5057866;28;20236;-62
2023/10/02 08:59:16;;;;;;;21.58;10.10;;;;;;;;;;5052380;28;20459;-63
2023/10/02 09:01:47;;;;;;;16.05;9.02;;;;;;;;;;5050283;28;20216;-63
2023/10/02 09:04:32;;;;;;;20.60;9.70;;;;;;;;;;5053607;28;20212;-63
2023/10/02 09:07:14;;;;;;;17.98;9.13;;;;;;;;;;5047440;28;20279;-64
2023/10/02 09:09:45;;;;;;;17.35;9.13;;;;;;;;;;5053327;28;20204;-62
2023/10/02 09:12:14;;;;;;;17.45;8.85;;;;;;;;;;5053422;28;20233;-64
2023/10/02 09:14:41;;;;;;;18.10;9.02;;;;;;;;;;5045671;28;20227;-62
2023/10/02 09:17:20;;;;;;;18.02;8.85;;;;;;;;;;5056033;28;20236;-62
2023/10/02 09:19:53;;;;;;;18.58;9.65;;;;;;;;;;5050040;28;20209;-62
2023/10/02 09:22:20;;;;;;;16.70;9.30;;;;;;;;;;5056110;28;20669;-63
2023/10/02 09:24:58;;;;;;;20.75;9.68;;;;;;;;;;5053363;28;20204;-62
2023/10/02 09:27:25;;;;;;;19.27;9.35;;;;;;;;;;5051117;28;20212;-63
2023/10/02 09:30:15;;;;;;;19.85;9.77;;;;;;;;;;5054725;28;20788;-63
2023/10/02 09:32:49;;;;;;;21.77;10.48;;;;;;;;;;5063833;28;20204;-63
2023/10/02 09:35:22;;;;;;;19.77;9.85;;;;;;;;;;5054152;28;20232;-62
2023/10/02 09:37:55;;;;;;;21.30;10.10;;;;;;;;;;5053167;28;20247;-63
2023/10/02 09:40:21;;;;;;;20.23;9.82;;;;;;;;;;5056280;28;20216;-62
2023/10/02 09:42:48;;;;;;;28.00;10.68;;;;;;;;;;5058546;28;20325;-64
2023/10/02 09:45:14;;;;;;;20.58;9.82;;;;;;;;;;5050656;28;20929;-63
2023/10/02 09:47:43;;;;;;;17.25;9.32;;;;;;;;;;5053096;28;20204;-62
2023/10/02 09:50:12;;;;;;;20.70;9.40;;;;;;;;;;5055961;28;20278;-62
2023/10/02 09:52:48;;;;;;;18.63;9.75;;;;;;;;;;5064751;28;20542;-63
2023/10/02 09:55:16;;;;;;;17.38;9.43;;;;;;;;;;5054573;28;20641;-62
2023/10/02 09:57:50;;;;;;;19.92;10.32;;;;;;;;;;5040067;28;20208;-63
2023/10/02 10:03:16;;;;;;;21.73;11.48;;;;;;;;;;5050569;28;20204;-63
2023/10/02 10:06:05;;;;;;;18.33;10.38;;;;;;;;;;5055414;28;20216;-63
2023/10/02 10:09:18;;;;;;;21.70;10.60;;;;;;;;;;5062865;28;20287;-62
2023/10/02 10:12:17;;;;;;;20.90;9.80;;;;;;;;;;5061797;28;20277;-63
2023/10/02 10:14:37;;;;;;;19.65;9.82;;;;;;;;;;5053592;28;20217;-63
2023/10/02 10:17:09;;;;;;;17.35;9.63;;;;;;;;;;5055075;28;20712;-63
2023/10/02 10:19:38;;;;;;;17.75;10.02;;;;;;;;;;5060049;28;20209;-63
2023/10/02 10:22:10;;;;;;;17.10;9.93;;;;;;;;;;5061251;28;20236;-64
2023/10/02 10:24:51;;;;;;;20.00;10.30;;;;;;;;;;5052884;28;20296;-64
2023/10/02 10:27:54;;;;;;;20.35;10.43;;;;;;;;;;5045472;28;20291;-63
2023/10/02 10:30:33;;;;;;;23.70;10.77;;;;;;;;;;5046842;28;20489;-64
2023/10/02 10:33:20;;;;;;;22.50;10.85;;;;;;;;;;5051551;28;20249;-64
2023/10/02 10:35:48;;;;;;;20.30;10.52;;;;;;;;;;5053795;28;20223;-63
2023/10/02 10:38:36;;;;;;;24.10;10.50;;;;;;;;;;5050967;28;20200;-64
2023/10/02 10:41:05;;;;;;;22.25;10.50;;;;;;;;;;5050207;28;20220;-64
2023/10/02 10:43:55;;;;;;;20.48;10.60;;;;;;;;;;5055469;28;20203;-63
2023/10/02 10:46:23;;;;;;;18.77;9.65;;;;;;;;;;5054185;28;20255;-64
2023/10/02 10:48:59;;;;;;;23.05;10.18;;;;;;;;;;5040442;28;20203;-64
2023/10/02 10:51:27;;;;;;;27.30;11.52;;;;;;;;;;5050530;28;20693;-65
2023/10/02 10:54:00;;;;;;;23.92;11.20;;;;;;;;;;5062136;28;20204;-65
2023/10/02 10:56:27;;;;;;;22.85;11.50;;;;;;;;;;5053895;28;20282;-63
2023/10/02 10:59:01;;;;;;;23.00;12.32;;;;;;;;;;5048590;28;20247;-64
2023/10/02 11:01:27;;;;;;;23.90;11.60;;;;;;;;;;5056668;28;20219;-63
2023/10/02 11:04:02;;;;;;;23.20;11.65;;;;;;;;;;5051389;28;20711;-62
2023/10/02 11:06:28;;;;;;;24.08;11.65;;;;;;;;;;5064558;28;20247;-63
2023/10/02 11:09:11;;;;;;;23.77;12.57;;;;;;;;;;5056109;28;20208;-64
2023/10/02 11:11:48;;;;;;;20.83;11.90;;;;;;;;;;5064346;28;20254;-63
2023/10/02 11:14:20;;;;;;;25.50;12.82;;;;;;;;;;5062918;28;20238;-62
2023/10/02 11:16:51;;;;;;;29.50;13.25;;;;;;;;;;5052484;28;20341;-62
2023/10/02 11:19:34;;;;;;;23.77;13.25;;;;;;;;;;5058345;28;20700;-63
2023/10/02 11:22:01;;;;;;;24.33;13.35;;;;;;;;;;5053575;28;20220;-62
2023/10/02 11:24:27;;;;;;;25.95;13.50;;;;;;;;;;5054707;28;20678;-64
2023/10/02 11:27:04;;;;;;;26.50;13.57;;;;;;;;;;5063137;28;20231;-63
2023/10/02 11:29:40;;;;;;;28.83;15.10;;;;;;;;;;5054830;28;20209;-61
2023/10/02 11:32:20;;;;;;;25.08;13.48;;;;;;;;;;5057031;28;20207;-62
2023/10/02 11:34:47;;;;;;;26.25;13.75;;;;;;;;;;5055770;28;20212;-63
2023/10/02 11:37:14;;;;;;;25.17;14.07;;;;;;;;;;5064390;28;20234;-63
2023/10/02 11:39:40;;;;;;;27.20;14.43;;;;;;;;;;5054949;28;20209;-62
2023/10/02 11:42:07;;;;;;;29.52;14.57;;;;;;;;;;5060065;28;20215;-62
2023/10/02 11:44:33;;;;;;;30.88;15.43;;;;;;;;;;5064072;28;20209;-62
2023/10/02 11:47:01;;;;;;;34.20;15.68;;;;;;;;;;5051869;28;20615;-63
2023/10/02 11:49:29;;;;;;;27.58;14.80;;;;;;;;;;5055708;28;20220;-62
2023/10/02 11:52:00;;;;;;;25.95;13.82;;;;;;;;;;5058360;28;20204;-63
2023/10/02 11:54:26;;;;;;;30.30;15.70;;;;;;;;;;5054901;28;20274;-63
2023/10/02 11:56:52;;;;;;;31.35;15.25;;;;;;;;;;5059728;28;20657;-62
2023/10/02 11:59:19;;;;;;;30.45;15.65;;;;;;;;;;5046839;28;20216;-64
2023/10/02 12:01:47;;;;;;;30.80;15.88;;;;;;;;;;5055789;28;20696;-62
2023/10/02 12:04:15;;;;;;;38.17;16.45;;;;;;;;;;5055798;28;20311;-62
2023/10/02 12:06:42;;;;;;;31.67;16.55;;;;;;;;;;5054460;28;20745;-63
2023/10/02 12:09:17;;;;;;;37.75;17.70;;;;;;;;;;5059719;28;20208;-62
2023/10/02 12:11:43;;;;;;;35.45;18.13;;;;;;;;;;5063932;28;20714;-63
2023/10/02 12:14:09;;;;;;;40.05;17.73;;;;;;;;;;5066281;28;20208;-61
2023/10/02 12:16:38;;;;;;;40.25;18.92;;;;;;;;;;5058259;28;20227;-63
2023/10/02 12:19:05;;;;;;;33.63;17.33;;;;;;;;;;5063348;28;20208;-62
2023/10/02 12:21:33;;;;;;;38.42;19.20;;;;;;;;;;5059739;28;20736;-62
2023/10/02 12:24:00;;;;;;;39.42;19.30;;;;;;;;;;5049870;28;20590;-62
2023/10/02 12:26:28;;;;;;;37.60;19.10;;;;;;;;;;5061757;28;20219;-62
2023/10/02 12:28:55;;;;;;;37.10;18.52;;;;;;;;;;5053919;28;20303;-63
2023/10/02 12:31:21;;;;;;;42.08;20.20;;;;;;;;;;5061520;23;20228;-63
2023/10/02 12:33:52;;;;;;;42.85;21.40;;;;;;;;;;5039108;28;20216;-63
2023/10/02 12:36:20;;;;;;;41.80;21.23;;;;;;;;;;5036996;28;20239;-63
2023/10/02 12:38:48;;;;;;;45.33;23.02;;;;;;;;;;5036117;28;20209;-63
2023/10/02 12:41:14;;;;;;;49.05;23.73;;;;;;;;;;5041047;28;20216;-63
2023/10/02 12:43:42;;;;;;;44.55;22.27;;;;;;;;;;5040746;28;20213;-63
2023/10/02 12:46:08;;;;;;;45.20;23.10;;;;;;;;;;5034738;28;20629;-63
2023/10/02 12:48:34;;;;;;;49.53;24.92;;;;;;;;;;5041531;28;20216;-64
2023/10/02 12:51:04;;;;;;;51.10;25.60;;;;;;;;;;5032571;28;20212;-64
2023/10/02 12:53:30;;;;;;;51.45;26.58;;;;;;;;;;5032885;28;20781;-63
2023/10/02 12:55:59;;;;;;;53.35;24.65;;;;;;;;;;5039877;28;20220;-63
2023/10/02 12:58:27;;;;;;;48.40;25.55;;;;;;;;;;5037032;28;20225;-63
2023/10/02 13:00:53;;;;;;;44.72;23.80;;;;;;;;;;5037402;28;20216;-64
2023/10/02 13:03:20;;;;;;;52.33;23.27;;;;;;;;;;5034753;28;20274;-64
2023/10/02 13:05:46;;;;;;;44.53;23.25;;;;;;;;;;5028537;28;20217;-66
2023/10/02 13:08:12;;;;;;;46.17;21.83;;;;;;;;;;5028459;28;20242;-63
2023/10/02 13:10:39;;;;;;;44.05;23.33;;;;;;;;;;5031017;28;20571;-65
2023/10/02 13:13:07;;;;;;;44.88;23.77;;;;;;;;;;5037152;28;20204;-64
2023/10/02 13:15:35;;;;;;;45.00;23.05;;;;;;;;;;5038146;28;20220;-63
2023/10/02 13:18:01;;;;;;;39.35;20.45;;;;;;;;;;5034886;28;20211;-65
2023/10/02 13:20:27;;;;;;;36.00;19.25;;;;;;;;;;5033572;28;20201;-64
2023/10/02 13:22:54;;;;;;;40.92;19.05;;;;;;;;;;5032219;28;20224;-64
2023/10/02 13:25:21;;;;;;;36.97;18.40;;;;;;;;;;5030148;28;20808;-63
2023/10/02 13:27:48;;;;;;;35.70;18.63;;;;;;;;;;5029062;28;20744;-64
2023/10/02 13:30:19;;;;;;;38.08;18.50;;;;;;;;;;5033253;28;20292;-65
2023/10/02 13:32:45;;;;;;;34.65;18.73;;;;;;;;;;5032994;28;20213;-64
2023/10/02 13:35:12;;;;;;;37.67;19.17;;;;;;;;;;5036505;28;20752;-64
2023/10/02 13:37:39;;;;;;;33.33;17.50;;;;;;;;;;5036113;28;20733;-65
2023/10/02 13:40:18;;;;;;;36.38;17.85;;;;;;;;;;5017881;28;20244;-66
2023/10/02 13:42:45;;;;;;;33.35;17.45;;;;;;;;;;5031928;28;20220;-66
2023/10/02 13:45:11;;;;;;;35.58;18.33;;;;;;;;;;5043922;28;20221;-65
2023/10/02 13:47:39;;;;;;;35.55;18.55;;;;;;;;;;5041686;28;21168;-64
2023/10/02 13:50:05;;;;;;;35.45;18.00;;;;;;;;;;5018788;28;20208;-64
2023/10/02 13:52:32;;;;;;;36.88;17.77;;;;;;;;;;5039870;28;20249;-64
2023/10/02 13:54:58;;;;;;;29.90;16.63;;;;;;;;;;5032964;28;20247;-65
2023/10/02 13:57:25;;;;;;;32.70;16.55;;;;;;;;;;5034270;28;20533;-64
2023/10/02 13:59:51;;;;;;;33.90;17.05;;;;;;;;;;5036271;28;20673;-64
2023/10/02 14:02:17;;;;;;;34.63;17.58;;;;;;;;;;5033839;28;20627;-64
2023/10/02 14:04:46;;;;;;;34.20;17.50;;;;;;;;;;5037521;28;20205;-65
2023/10/02 14:07:13;;;;;;;34.75;17.73;;;;;;;;;;5030140;28;20208;-65
2023/10/02 14:09:39;;;;;;;34.72;18.70;;;;;;;;;;5026638;28;20201;-65
2023/10/02 14:12:06;;;;;;;31.73;16.92;;;;;;;;;;5043967;28;20197;-65
2023/10/02 14:14:32;;;;;;;31.70;16.92;;;;;;;;;;5033365;28;20220;-66
2023/10/02 14:16:59;;;;;;;31.42;16.48;;;;;;;;;;5042310;28;20732;-65
2023/10/02 14:19:25;;;;;;;31.08;15.65;;;;;;;;;;5036730;28;20228;-64
2023/10/02 14:21:53;;;;;;;30.98;17.05;;;;;;;;;;5031483;28;20602;-65
2023/10/02 14:24:19;;;;;;;31.00;16.70;;;;;;;;;;5033129;28;20204;-64
2023/10/02 14:26:46;;;;;;;31.95;16.88;;;;;;;;;;5031962;28;20225;-64
2023/10/02 14:29:12;;;;;;;28.50;15.15;;;;;;;;;;5036053;28;20285;-64
2023/10/02 14:31:39;;;;;;;31.80;16.42;;;;;;;;;;5041284;28;20208;-64
2023/10/02 14:34:06;;;;;;;33.92;15.65;;;;;;;;;;5041741;28;21032;-64
2023/10/02 14:36:33;;;;;;;32.28;16.73;;;;;;;;;;5041810;28;20772;-65
2023/10/02 14:39:03;;;;;;;35.70;17.27;;;;;;;;;;5036456;28;20286;-65
2023/10/02 14:41:29;;;;;;;33.97;17.13;;;;;;;;;;5043250;28;20231;-64
2023/10/02 14:43:56;;;;;;;31.67;16.58;;;;;;;;;;5053254;28;20220;-63
2023/10/02 14:46:22;;;;;;;32.40;16.98;;;;;;;;;;5054621;28;20687;-63
2023/10/02 14:48:49;;;;;;;32.70;16.55;;;;;;;;;;5054146;28;20200;-63
2023/10/02 14:51:17;;;;;;;34.75;18.23;;;;;;;;;;5054548;28;20664;-63